createdAt,value
2023-04-20T00:02:39.865Z,8.02
2023-04-20T00:05:25.351Z,9.14
2023-04-20T00:08:10.668Z,7.97
2023-04-20T00:10:56.220Z,9.19
2023-04-20T00:13:41.425Z,7.81
2023-04-20T00:16:26.995Z,9.20
2023-04-20T00:19:12.862Z,9.16
2023-04-20T00:21:58.352Z,8.81
2023-04-20T00:24:43.652Z,9.05
2023-04-20T00:27:28.986Z,9.06
2023-04-20T00:30:14.971Z,8.38
2023-04-20T00:33:00.276Z,8.95
2023-04-20T00:35:45.998Z,8.51
2023-04-20T00:38:31.650Z,8.82
2023-04-20T00:41:18.083Z,8.91
2023-04-20T00:44:03.683Z,8.09
2023-04-20T00:46:51.707Z,8.89
2023-04-20T00:49:37.850Z,8.54
2023-04-20T00:52:23.703Z,7.63
2023-04-20T00:55:09.677Z,8.51
2023-04-20T00:57:57.131Z,8.41
2023-04-20T01:00:44.025Z,7.31
2023-04-20T01:03:29.909Z,8.59
2023-04-20T01:06:15.668Z,8.74
2023-04-20T01:09:01.550Z,8.16
2023-04-20T01:11:48.846Z,7.36
2023-04-20T01:14:35.349Z,8.46
2023-04-20T01:17:22.299Z,7.54
2023-04-20T01:20:11.665Z,7.24
2023-04-20T01:22:57.070Z,8.46
2023-04-20T01:25:42.535Z,7.20
2023-04-20T01:28:27.966Z,7.97
2023-04-20T01:31:13.675Z,8.05
2023-04-20T01:33:59.720Z,8.39
2023-04-20T01:36:45.661Z,7.23
2023-04-20T01:39:31.136Z,7.83
2023-04-20T01:42:16.588Z,7.20
2023-04-20T01:45:02.060Z,8.49
2023-04-20T01:47:47.437Z,8.16
2023-04-20T01:50:32.824Z,7.85
2023-04-20T01:53:18.756Z,7.21
2023-04-20T01:56:05.672Z,8.19
2023-04-20T01:58:51.329Z,8.46
2023-04-20T02:01:37.066Z,7.16
2023-04-20T02:04:24.941Z,8.22
2023-04-20T02:07:10.574Z,8.43
2023-04-20T02:09:57.494Z,7.69
2023-04-20T02:12:42.790Z,8.43
2023-04-20T02:15:28.064Z,8.24
2023-04-20T02:18:13.411Z,7.21
2023-04-20T02:21:00.438Z,7.94
2023-04-20T02:23:45.857Z,7.37
2023-04-20T02:26:31.052Z,8.38
2023-04-20T02:29:17.004Z,8.10
2023-04-20T02:32:02.904Z,7.11
2023-04-20T02:34:48.913Z,7.20
2023-04-20T02:37:34.851Z,8.24
2023-04-20T02:40:20.912Z,8.32
2023-04-20T02:43:06.585Z,7.87
2023-04-20T02:45:53.325Z,8.45
2023-04-20T02:48:40.569Z,6.98
2023-04-20T02:51:26.992Z,8.49
2023-04-20T02:54:13.496Z,7.22
2023-04-20T02:56:59.030Z,8.26
2023-04-20T02:59:45.238Z,7.67
2023-04-20T03:02:38.616Z,8.02
2023-04-20T03:05:24.529Z,7.40
2023-04-20T03:08:09.817Z,8.65
2023-04-20T03:10:55.215Z,8.70
2023-04-20T03:13:41.533Z,7.82
2023-04-20T03:16:26.946Z,8.83
2023-04-20T03:19:14.381Z,8.26
2023-04-20T03:22:00.144Z,8.49
2023-04-20T03:24:47.769Z,7.99
2023-04-20T03:27:46.191Z,8.18
2023-04-20T03:30:32.979Z,7.69
2023-04-20T03:33:22.837Z,8.69
2023-04-20T03:36:09.392Z,7.39
2023-04-20T03:38:55.522Z,7.47
2023-04-20T03:41:41.406Z,8.47
2023-04-20T03:44:26.790Z,8.51
2023-04-20T03:47:12.175Z,7.54
2023-04-20T03:49:58.114Z,7.95
2023-04-20T03:52:43.309Z,8.56
2023-04-20T03:55:29.836Z,8.49
2023-04-20T03:58:21.118Z,8.61
2023-04-20T04:01:18.798Z,8.10
2023-04-20T04:04:07.655Z,7.30
2023-04-20T04:06:53.890Z,8.20
2023-04-20T04:09:39.292Z,8.58
2023-04-20T04:12:26.068Z,8.04
2023-04-20T04:15:12.585Z,8.38
2023-04-20T04:18:06.628Z,8.49
2023-04-20T04:20:53.944Z,7.47
2023-04-20T04:23:39.572Z,8.78
2023-04-20T04:26:36.441Z,8.69
2023-04-20T04:29:23.400Z,8.56
2023-04-20T04:32:09.619Z,8.27
2023-04-20T04:34:56.623Z,8.57
2023-04-20T04:37:44.577Z,7.93
2023-04-20T04:40:29.887Z,7.39
2023-04-20T04:43:17.235Z,8.75
2023-04-20T04:46:11.078Z,8.40
2023-04-20T04:48:56.585Z,8.81
2023-04-20T04:51:43.174Z,8.72
2023-04-20T04:54:29.968Z,8.50
2023-04-20T04:57:15.912Z,8.52
2023-04-20T05:00:01.484Z,8.78
2023-04-20T05:02:46.937Z,7.72
2023-04-20T05:05:32.902Z,8.62
2023-04-20T05:08:18.497Z,8.83
2023-04-20T05:11:03.952Z,8.42
2023-04-20T05:13:49.914Z,8.95
2023-04-20T05:16:36.217Z,8.95
2023-04-20T05:19:22.205Z,8.92
2023-04-20T05:22:08.670Z,8.92
2023-04-20T05:24:54.476Z,7.76
2023-04-20T05:27:40.413Z,8.29
2023-04-20T05:30:26.101Z,8.94
2023-04-20T05:33:11.360Z,9.17
2023-04-20T05:35:57.723Z,9.41
2023-04-20T05:38:43.096Z,8.53
2023-04-20T05:41:28.614Z,9.77
2023-04-20T05:44:14.044Z,9.93
2023-04-20T05:46:59.795Z,8.89
2023-04-20T05:49:46.142Z,10.28
2023-04-20T05:52:31.501Z,10.46
2023-04-20T05:55:18.959Z,10.61
2023-04-20T05:58:05.961Z,10.02
2023-04-20T06:00:51.564Z,11.14
2023-04-20T06:03:37.089Z,10.38
2023-04-20T06:06:23.030Z,11.65
2023-04-20T06:09:08.539Z,11.01
2023-04-20T06:11:53.959Z,12.10
2023-04-20T06:14:39.159Z,12.31
2023-04-20T06:17:24.825Z,12.38
2023-04-20T06:20:11.578Z,12.46
2023-04-20T06:22:56.857Z,11.50
2023-04-20T06:25:42.922Z,11.70
2023-04-20T06:28:28.450Z,12.84
2023-04-20T06:31:13.927Z,11.88
2023-04-20T06:33:59.461Z,13.11
2023-04-20T06:36:45.020Z,12.83
2023-04-20T06:39:30.512Z,12.36
2023-04-20T06:42:16.087Z,13.27
2023-04-20T06:45:02.123Z,13.43
2023-04-20T06:47:48.151Z,12.59
2023-04-20T06:50:34.231Z,13.69
2023-04-20T06:53:19.612Z,13.76
2023-04-20T06:56:05.513Z,13.78
2023-04-20T06:58:51.156Z,13.38
2023-04-20T07:01:36.725Z,13.91
2023-04-20T07:04:22.385Z,14.00
2023-04-20T07:07:08.004Z,13.99
2023-04-20T07:09:53.330Z,13.97
2023-04-20T07:12:42.188Z,13.71
2023-04-20T07:15:28.338Z,13.97
2023-04-20T07:18:13.817Z,14.27
2023-04-20T07:20:59.096Z,14.02
2023-04-20T07:23:45.101Z,14.16
2023-04-20T07:26:31.268Z,14.39
2023-04-20T07:29:17.175Z,14.52
2023-04-20T07:32:02.811Z,14.57
2023-04-20T07:34:48.657Z,14.67
2023-04-20T07:37:34.614Z,14.72
2023-04-20T07:40:19.884Z,14.41
2023-04-20T07:43:05.658Z,13.69
2023-04-20T07:45:51.487Z,14.78
2023-04-20T07:48:37.283Z,13.67
2023-04-20T07:51:22.838Z,14.72
2023-04-20T07:54:08.736Z,13.96
2023-04-20T07:56:54.798Z,13.80
2023-04-20T07:59:40.804Z,14.83
2023-04-20T08:02:26.602Z,14.83
2023-04-20T08:05:12.721Z,14.70
2023-04-20T08:07:59.374Z,14.91
2023-04-20T08:10:45.009Z,14.95
2023-04-20T08:13:32.259Z,14.00
2023-04-20T08:16:17.810Z,14.98
2023-04-20T08:19:10.052Z,14.19
2023-04-20T08:21:55.778Z,15.16
2023-04-20T08:24:41.406Z,14.23
2023-04-20T08:27:29.604Z,14.87
2023-04-20T08:30:15.601Z,15.03
2023-04-20T08:33:01.015Z,15.21
2023-04-20T08:35:46.747Z,15.26
2023-04-20T08:38:34.158Z,15.11
2023-04-20T08:41:19.919Z,14.54
2023-04-20T08:44:06.690Z,15.64
2023-04-20T08:46:52.579Z,15.51
2023-04-20T08:49:39.736Z,14.90
2023-04-20T08:52:25.338Z,14.53
2023-04-20T08:55:14.928Z,15.10
2023-04-20T08:58:00.326Z,15.56
2023-04-20T09:00:49.448Z,15.57
2023-04-20T09:03:40.957Z,15.50
2023-04-20T09:06:26.885Z,14.54
2023-04-20T09:09:12.822Z,14.95
2023-04-20T09:12:07.665Z,15.53
2023-04-20T09:14:54.245Z,15.37
2023-04-20T09:17:41.052Z,15.52
2023-04-20T09:20:34.967Z,15.44
2023-04-20T09:23:21.613Z,15.10
2023-04-20T09:26:07.074Z,15.46
2023-04-20T09:28:52.735Z,14.59
2023-04-20T09:31:38.528Z,15.71
2023-04-20T09:34:24.270Z,15.64
2023-04-20T09:37:10.884Z,14.92
2023-04-20T09:40:00.351Z,15.71
2023-04-20T09:42:48.513Z,15.80
2023-04-20T09:45:34.368Z,15.77
2023-04-20T09:48:21.723Z,15.98
2023-04-20T09:51:07.732Z,16.01
2023-04-20T09:53:54.735Z,16.02
2023-04-20T09:56:41.234Z,15.79
2023-04-20T09:59:27.695Z,15.83
2023-04-20T10:02:14.570Z,15.63
2023-04-20T10:05:01.837Z,15.90
2023-04-20T10:07:47.348Z,14.82
2023-04-20T10:10:47.327Z,15.84
2023-04-20T10:13:34.186Z,15.82
2023-04-20T10:16:21.248Z,15.50
2023-04-20T10:19:09.041Z,15.79
2023-04-20T10:21:54.958Z,15.88
2023-04-20T10:24:40.394Z,15.93
2023-04-20T10:27:26.238Z,15.96
2023-04-20T10:30:12.564Z,15.95
2023-04-20T10:33:09.963Z,15.01
2023-04-20T10:35:57.849Z,15.78
2023-04-20T10:38:43.475Z,15.80
2023-04-20T10:41:29.863Z,15.30
2023-04-20T10:44:16.017Z,15.87
2023-04-20T10:47:01.783Z,15.98
2023-04-20T10:49:47.422Z,16.01
2023-04-20T10:52:37.407Z,16.06
2023-04-20T10:55:26.522Z,15.84
2023-04-20T10:58:23.330Z,16.02
2023-04-20T11:01:09.550Z,15.90
2023-04-20T11:03:55.061Z,16.00
2023-04-20T11:06:44.411Z,15.00
2023-04-20T11:09:31.288Z,15.99
2023-04-20T11:12:18.044Z,15.80
2023-04-20T11:15:04.472Z,16.02
2023-04-20T11:17:50.935Z,15.00
2023-04-20T11:20:36.430Z,15.67
2023-04-20T11:23:23.543Z,16.18
2023-04-20T11:26:09.748Z,16.14
2023-04-20T11:28:56.440Z,15.78
2023-04-20T11:31:42.596Z,15.98
2023-04-20T11:34:29.148Z,14.92
2023-04-20T11:37:14.536Z,16.01
2023-04-20T11:40:01.608Z,15.56
2023-04-20T11:42:47.246Z,16.07
2023-04-20T11:45:36.703Z,15.89
2023-04-20T11:48:22.682Z,16.07
2023-04-20T11:51:08.947Z,16.22
2023-04-20T11:53:54.727Z,16.22
2023-04-20T11:56:44.925Z,16.17
2023-04-20T11:59:30.658Z,16.09
2023-04-20T12:02:16.478Z,16.14
2023-04-20T12:05:03.016Z,16.05
2023-04-20T12:07:49.015Z,15.00
2023-04-20T12:10:34.370Z,15.85
2023-04-20T12:13:19.996Z,15.95
2023-04-20T12:16:05.782Z,16.13
2023-04-20T12:18:51.839Z,16.15
2023-04-20T12:21:37.596Z,15.32
2023-04-20T12:24:23.407Z,16.06
2023-04-20T12:27:09.097Z,16.20
2023-04-20T12:29:54.520Z,16.22
2023-04-20T12:32:39.931Z,16.30
2023-04-20T12:35:25.234Z,16.31
2023-04-20T12:38:11.790Z,15.47
2023-04-20T12:40:59.148Z,16.50
2023-04-20T12:43:45.092Z,16.29
2023-04-20T12:46:30.858Z,16.53
2023-04-20T12:49:16.583Z,15.37
2023-04-20T12:52:02.457Z,16.12
2023-04-20T12:54:48.056Z,16.56
2023-04-20T12:57:33.615Z,16.00
2023-04-20T13:00:19.675Z,16.31
2023-04-20T13:03:05.211Z,15.44
2023-04-20T13:05:50.903Z,16.37
2023-04-20T13:08:37.308Z,16.39
2023-04-20T13:11:23.244Z,16.39
2023-04-20T13:14:09.285Z,15.30
2023-04-20T13:16:55.506Z,16.27
2023-04-20T13:19:41.672Z,15.87
2023-04-20T13:22:27.277Z,16.27
2023-04-20T13:25:13.228Z,15.10
2023-04-20T13:27:59.745Z,16.06
2023-04-20T13:30:46.017Z,16.30
2023-04-20T13:33:33.702Z,15.77
2023-04-20T13:36:19.591Z,16.22
2023-04-20T13:39:05.577Z,16.20
2023-04-20T13:41:51.225Z,15.96
2023-04-20T13:44:36.674Z,15.83
2023-04-20T13:47:22.697Z,16.19
2023-04-20T13:50:09.127Z,16.15
2023-04-20T13:52:54.737Z,16.23
2023-04-20T13:55:40.496Z,15.80
2023-04-20T13:58:28.842Z,15.25
2023-04-20T14:01:16.846Z,16.26
2023-04-20T14:04:02.504Z,16.25
2023-04-20T14:06:48.498Z,16.24
2023-04-20T14:09:34.076Z,15.00
2023-04-20T14:12:19.991Z,15.86
2023-04-20T14:15:06.233Z,16.08
2023-04-20T14:17:52.888Z,14.96
2023-04-20T14:20:38.848Z,15.73
2023-04-20T14:23:24.200Z,15.88
2023-04-20T14:26:09.978Z,15.69
2023-04-20T14:28:55.762Z,15.88
2023-04-20T14:31:41.257Z,15.99
2023-04-20T14:34:26.654Z,15.60
2023-04-20T14:37:12.038Z,16.02
2023-04-20T14:39:57.624Z,16.05
2023-04-20T14:42:43.514Z,15.20
2023-04-20T14:45:29.125Z,16.10
2023-04-20T14:48:14.782Z,16.13
2023-04-20T14:51:00.534Z,16.12
2023-04-20T14:53:46.463Z,16.12
2023-04-20T14:56:32.466Z,15.63
2023-04-20T14:59:18.224Z,15.66
2023-04-20T15:02:05.957Z,16.11
2023-04-20T15:04:51.951Z,15.79
2023-04-20T15:07:37.856Z,15.95
2023-04-20T15:10:23.918Z,15.81
2023-04-20T15:13:09.574Z,14.62
2023-04-20T15:15:55.575Z,15.56
2023-04-20T15:18:41.774Z,15.32
2023-04-20T15:21:27.705Z,15.04
2023-04-20T15:24:13.353Z,15.38
2023-04-20T15:26:59.240Z,15.20
2023-04-20T15:29:44.747Z,14.16
2023-04-20T15:32:30.440Z,15.20
2023-04-20T15:35:15.975Z,15.20
2023-04-20T15:38:01.572Z,15.10
2023-04-20T15:40:46.897Z,13.92
2023-04-20T15:43:32.229Z,14.49
2023-04-20T15:46:17.847Z,14.82
2023-04-20T15:49:03.468Z,14.96
2023-04-20T15:51:51.595Z,14.90
2023-04-20T15:54:39.131Z,14.86
2023-04-20T15:57:25.088Z,14.81
2023-04-20T16:00:11.589Z,14.32
2023-04-20T16:02:57.439Z,13.76
2023-04-20T16:05:43.168Z,14.42
2023-04-20T16:08:28.733Z,14.51
2023-04-20T16:11:14.479Z,13.96
2023-04-20T16:14:00.498Z,13.36
2023-04-20T16:16:46.427Z,13.59
2023-04-20T16:19:31.959Z,14.47
2023-04-20T16:22:17.478Z,14.01
2023-04-20T16:25:03.338Z,14.14
2023-04-20T16:27:50.926Z,14.34
2023-04-20T16:30:37.117Z,14.22
2023-04-20T16:33:22.376Z,14.24
2023-04-20T16:36:08.503Z,14.26
2023-04-20T16:38:53.946Z,13.07
2023-04-20T16:41:39.290Z,13.73
2023-04-20T16:44:24.918Z,13.90
2023-04-20T16:47:10.457Z,13.69
2023-04-20T16:49:56.562Z,14.01
2023-04-20T16:52:42.056Z,12.79
2023-04-20T16:55:27.383Z,13.73
2023-04-20T16:58:12.934Z,12.71
2023-04-20T17:00:58.380Z,13.58
2023-04-20T17:03:44.437Z,12.77
2023-04-20T17:06:30.234Z,13.14
2023-04-20T17:09:15.638Z,13.24
2023-04-20T17:12:01.518Z,13.24
2023-04-20T17:14:47.175Z,13.25
2023-04-20T17:17:33.100Z,13.17
2023-04-20T17:20:18.906Z,13.06
2023-04-20T17:23:04.444Z,13.00
2023-04-20T17:25:51.282Z,12.94
2023-04-20T17:28:37.177Z,12.86
2023-04-20T17:31:23.154Z,11.59
2023-04-20T17:34:08.823Z,12.73
2023-04-20T17:36:54.270Z,12.76
2023-04-20T17:39:40.327Z,12.76
2023-04-20T17:42:25.986Z,12.16
2023-04-20T17:45:12.047Z,12.25
2023-04-20T17:47:57.595Z,12.60
2023-04-20T17:50:43.477Z,11.29
2023-04-20T17:53:29.573Z,11.21
2023-04-20T17:56:15.126Z,12.28
2023-04-20T17:59:00.539Z,11.20
2023-04-20T18:01:46.068Z,12.23
2023-04-20T18:04:31.865Z,12.23
2023-04-20T18:07:18.471Z,12.21
2023-04-20T18:10:04.420Z,12.22
2023-04-20T18:12:51.088Z,12.20
2023-04-20T18:15:38.525Z,12.16
2023-04-20T18:18:25.139Z,12.13
2023-04-20T18:21:12.107Z,12.17
2023-04-20T18:23:57.641Z,11.90
2023-04-20T18:26:43.326Z,11.41
2023-04-20T18:29:29.905Z,12.27
2023-04-20T18:32:16.469Z,12.31
2023-04-20T18:35:03.082Z,11.17
2023-04-20T18:37:48.620Z,12.39
2023-04-20T18:40:34.329Z,11.61
2023-04-20T18:43:19.851Z,11.59
2023-04-20T18:46:09.311Z,12.14
2023-04-20T18:48:55.060Z,12.32
2023-04-20T18:51:40.740Z,11.60
2023-04-20T18:54:26.608Z,11.97
2023-04-20T18:57:12.249Z,12.40
2023-04-20T18:59:57.668Z,12.39
2023-04-20T19:02:43.982Z,12.17
2023-04-20T19:05:30.949Z,12.15
2023-04-20T19:08:16.621Z,11.26
2023-04-20T19:11:02.141Z,12.12
2023-04-20T19:13:48.499Z,12.41
2023-04-20T19:16:34.843Z,11.35
2023-04-20T19:19:20.403Z,11.40
2023-04-20T19:22:06.068Z,12.32
2023-04-20T19:24:51.857Z,12.15
2023-04-20T19:27:38.072Z,12.16
2023-04-20T19:30:23.777Z,11.51
2023-04-20T19:33:09.423Z,11.52
2023-04-20T19:35:54.862Z,12.33
2023-04-20T19:38:41.063Z,12.68
2023-04-20T19:41:26.694Z,11.83
2023-04-20T19:44:14.442Z,12.61
2023-04-20T19:47:00.645Z,11.42
2023-04-20T19:49:46.910Z,12.48
2023-04-20T19:52:34.388Z,12.21
2023-04-20T19:55:19.872Z,11.36
2023-04-20T19:58:14.717Z,12.66
2023-04-20T20:01:01.351Z,11.57
2023-04-20T20:03:46.783Z,11.80
2023-04-20T20:06:34.026Z,12.16
2023-04-20T20:09:23.145Z,11.37
2023-04-20T20:12:10.810Z,12.54
2023-04-20T20:14:56.130Z,12.46
2023-04-20T20:17:41.908Z,12.10
2023-04-20T20:20:30.344Z,12.33
2023-04-20T20:23:15.909Z,11.85
2023-04-20T20:26:02.522Z,11.70
2023-04-20T20:28:48.261Z,12.06
2023-04-20T20:31:34.014Z,11.40
2023-04-20T20:34:19.991Z,11.95
2023-04-20T20:37:05.261Z,11.73
2023-04-20T20:39:53.225Z,11.62
2023-04-20T20:42:40.108Z,11.67
2023-04-20T20:45:25.693Z,10.68
2023-04-20T20:48:11.109Z,11.07
2023-04-20T20:50:56.529Z,11.39
2023-04-20T20:53:42.148Z,11.20
2023-04-20T20:56:27.778Z,11.19
2023-04-20T20:59:13.052Z,10.55
2023-04-20T21:01:58.459Z,10.74
2023-04-20T21:04:43.805Z,10.99
2023-04-20T21:07:29.097Z,10.72
2023-04-20T21:10:14.637Z,9.93
2023-04-20T21:13:00.105Z,9.95
2023-04-20T21:15:45.687Z,10.93
2023-04-20T21:18:31.176Z,10.97
2023-04-20T21:21:16.540Z,9.69
2023-04-20T21:24:02.163Z,10.92
2023-04-20T21:26:47.563Z,9.87
2023-04-20T21:29:32.840Z,9.74
2023-04-20T21:32:18.327Z,9.48
2023-04-20T21:35:04.597Z,10.45
2023-04-20T21:37:50.263Z,10.28
2023-04-20T21:40:35.807Z,10.75
2023-04-20T21:43:21.608Z,9.52
2023-04-20T21:46:07.032Z,10.78
2023-04-20T21:48:52.614Z,10.04
2023-04-20T21:51:38.074Z,10.04
2023-04-20T21:54:23.605Z,9.59
2023-04-20T21:57:09.067Z,9.07
2023-04-20T21:59:54.279Z,10.44
2023-04-20T22:02:39.872Z,9.23
2023-04-20T22:05:26.185Z,10.31
2023-04-20T22:08:13.861Z,9.47
2023-04-20T22:10:59.261Z,9.39
2023-04-20T22:13:45.328Z,10.22
2023-04-20T22:16:33.980Z,10.24
2023-04-20T22:19:19.597Z,10.34
2023-04-20T22:22:05.734Z,9.70
2023-04-20T22:24:51.375Z,10.34
2023-04-20T22:27:37.845Z,10.19
2023-04-20T22:30:23.495Z,9.64
2023-04-20T22:33:09.119Z,10.39
2023-04-20T22:35:54.948Z,9.10
2023-04-20T22:38:40.645Z,10.25
2023-04-20T22:41:26.271Z,9.49
2023-04-20T22:44:11.766Z,9.34
2023-04-20T22:46:57.136Z,9.28
2023-04-20T22:49:42.691Z,10.01
2023-04-20T22:52:27.942Z,9.96
2023-04-20T22:55:14.383Z,9.24
2023-04-20T22:57:59.943Z,9.12
2023-04-20T23:00:45.351Z,9.22
2023-04-20T23:03:31.263Z,10.16
2023-04-20T23:06:18.124Z,10.18
2023-04-20T23:09:07.292Z,10.20
2023-04-20T23:11:53.838Z,10.20
2023-04-20T23:14:42.655Z,10.14
2023-04-20T23:17:29.069Z,10.08
2023-04-20T23:20:15.116Z,9.54
2023-04-20T23:23:00.849Z,9.68
2023-04-20T23:25:46.195Z,9.89
2023-04-20T23:28:31.632Z,8.65
2023-04-20T23:31:17.012Z,9.99
2023-04-20T23:34:02.783Z,9.93
2023-04-20T23:36:48.284Z,9.90
2023-04-20T23:39:37.799Z,9.66
2023-04-20T23:42:23.167Z,9.83
2023-04-20T23:45:09.236Z,9.82
2023-04-20T23:47:54.600Z,9.53
2023-04-20T23:50:39.892Z,9.97
2023-04-20T23:53:25.439Z,10.04
2023-04-20T23:56:11.852Z,9.34
2023-04-20T23:58:58.961Z,10.22
